createdAt,value
2019-02-18T00:00:35.079Z,80.30
2019-02-18T00:01:44.281Z,64.97
2019-02-18T00:02:52.541Z,59.53
2019-02-18T00:04:01.395Z,77.50
2019-02-18T00:05:10.161Z,66.83
2019-02-18T00:06:18.371Z,66.53
2019-02-18T00:07:26.586Z,63.03
2019-02-18T00:08:35.331Z,62.17
2019-02-18T00:09:44.184Z,66.00
2019-02-18T00:10:52.565Z,65.30
2019-02-18T00:12:01.098Z,70.23
2019-02-18T00:13:09.242Z,68.40
2019-02-18T00:14:17.498Z,58.03
2019-02-18T00:15:26.620Z,69.40
2019-02-18T00:16:34.802Z,66.60
2019-02-18T00:17:43.264Z,79.27
2019-02-18T00:18:51.949Z,56.87
2019-02-18T00:20:00.096Z,45.57
2019-02-18T00:21:08.586Z,70.20
2019-02-18T00:22:16.721Z,62.17
2019-02-18T00:23:24.747Z,57.23
2019-02-18T00:24:32.819Z,73.50
2019-02-18T00:25:41.288Z,66.70
2019-02-18T00:26:49.518Z,58.67
2019-02-18T00:27:58.081Z,66.67
2019-02-18T00:29:06.332Z,58.60
2019-02-18T00:30:15.435Z,49.23
2019-02-18T00:31:24.165Z,59.90
2019-02-18T00:32:32.450Z,66.73
2019-02-18T00:33:41.007Z,67.60
2019-02-18T00:34:49.482Z,45.93
2019-02-18T00:35:57.635Z,56.23
2019-02-18T00:37:06.371Z,59.70
2019-02-18T00:38:14.442Z,51.97
2019-02-18T00:39:22.933Z,60.93
2019-02-18T00:40:31.417Z,52.37
2019-02-18T00:41:39.765Z,57.53
2019-02-18T00:42:47.929Z,41.40
2019-02-18T00:43:56.076Z,49.47
2019-02-18T00:45:05.404Z,53.20
2019-02-18T00:46:13.626Z,54.43
2019-02-18T00:47:22.232Z,37.37
2019-02-18T00:48:30.613Z,64.23
2019-02-18T00:49:38.784Z,47.77
2019-02-18T00:50:47.080Z,54.17
2019-02-18T00:51:55.336Z,47.43
2019-02-18T00:53:04.182Z,57.43
2019-02-18T00:54:12.589Z,57.90
2019-02-18T00:55:20.843Z,73.00
2019-02-18T00:56:29.266Z,57.00
2019-02-18T00:57:37.549Z,50.07
2019-02-18T00:58:45.946Z,53.83
2019-02-18T00:59:54.247Z,49.20
2019-02-18T01:01:02.474Z,70.30
2019-02-18T01:02:10.731Z,63.23
2019-02-18T01:03:19.323Z,52.57
2019-02-18T01:04:27.786Z,38.60
2019-02-18T01:05:35.992Z,53.33
2019-02-18T01:06:44.386Z,49.87
2019-02-18T01:07:52.598Z,37.63
2019-02-18T01:09:00.913Z,69.57
2019-02-18T01:10:12.429Z,66.93
2019-02-18T01:11:20.834Z,41.63
2019-02-18T01:12:29.569Z,60.17
2019-02-18T01:13:37.923Z,48.20
2019-02-18T01:14:46.343Z,57.43
2019-02-18T01:15:54.882Z,54.07
2019-02-18T01:17:03.136Z,63.03
2019-02-18T01:18:11.949Z,50.33
2019-02-18T01:19:20.166Z,60.80
2019-02-18T01:20:28.491Z,47.33
2019-02-18T01:21:36.510Z,40.07
2019-02-18T01:22:44.850Z,58.33
2019-02-18T01:23:53.050Z,53.63
2019-02-18T01:25:01.292Z,49.10
2019-02-18T01:26:09.796Z,43.07
2019-02-18T01:27:18.208Z,42.77
2019-02-18T01:28:26.817Z,56.67
2019-02-18T01:29:35.047Z,45.77
2019-02-18T01:30:43.368Z,41.27
2019-02-18T01:31:51.511Z,44.33
2019-02-18T01:32:59.766Z,44.40
2019-02-18T01:34:07.924Z,46.33
2019-02-18T01:35:16.733Z,49.10
2019-02-18T01:36:24.903Z,42.23
2019-02-18T01:37:33.377Z,42.43
2019-02-18T01:38:41.644Z,59.90
2019-02-18T01:39:49.962Z,46.10
2019-02-18T01:40:58.344Z,54.00
2019-02-18T01:42:06.718Z,58.07
2019-02-18T01:43:14.734Z,48.70
2019-02-18T01:44:22.969Z,49.17
2019-02-18T01:45:31.332Z,52.43
2019-02-18T01:46:39.563Z,41.30
2019-02-18T01:47:47.688Z,45.70
2019-02-18T01:48:55.921Z,54.77
2019-02-18T01:50:05.467Z,54.93
2019-02-18T01:51:13.623Z,42.37
2019-02-18T01:52:21.851Z,47.40
2019-02-18T01:53:30.539Z,49.90
2019-02-18T01:54:38.865Z,55.80
2019-02-18T01:55:46.881Z,55.37
2019-02-18T01:56:55.557Z,48.17
2019-02-18T01:58:03.545Z,58.93
2019-02-18T01:59:12.168Z,46.10
2019-02-18T02:00:20.336Z,57.37
2019-02-18T02:01:28.777Z,64.20
2019-02-18T02:02:36.712Z,46.67
2019-02-18T02:03:45.069Z,42.97
2019-02-18T02:04:53.425Z,53.17
2019-02-18T02:06:01.676Z,42.07
2019-02-18T02:07:10.096Z,44.73
2019-02-18T02:08:18.457Z,61.53
2019-02-18T02:09:26.719Z,44.83
2019-02-18T02:10:34.859Z,60.83
2019-02-18T02:11:43.214Z,51.77
2019-02-18T02:12:51.367Z,60.70
2019-02-18T02:13:59.629Z,60.17
2019-02-18T02:15:21.131Z,54.30
2019-02-18T02:16:29.433Z,54.30
2019-02-18T02:17:37.680Z,50.23
2019-02-18T02:18:46.300Z,86.33
2019-02-18T02:19:54.128Z,50.60
2019-02-18T02:21:02.783Z,33.93
2019-02-18T02:22:10.967Z,53.53
2019-02-18T02:23:19.339Z,54.77
2019-02-18T02:24:27.437Z,51.37
2019-02-18T02:25:36.113Z,55.53
2019-02-18T02:26:44.307Z,42.33
2019-02-18T02:27:52.455Z,64.03
2019-02-18T02:29:00.646Z,52.97
2019-02-18T02:30:11.505Z,52.77
2019-02-18T02:31:19.728Z,51.57
2019-02-18T02:32:28.108Z,64.20
2019-02-18T02:33:36.433Z,44.37
2019-02-18T02:34:44.824Z,49.70
2019-02-18T02:35:53.178Z,59.90
2019-02-18T02:37:01.589Z,51.83
2019-02-18T02:38:09.848Z,48.43
2019-02-18T02:39:18.345Z,67.53
2019-02-18T02:40:26.533Z,60.33
2019-02-18T02:41:34.960Z,55.07
2019-02-18T02:42:43.055Z,48.93
2019-02-18T02:43:51.392Z,42.30
2019-02-18T02:44:59.835Z,48.43
2019-02-18T02:46:08.443Z,61.10
2019-02-18T02:47:16.566Z,58.20
2019-02-18T02:48:25.022Z,58.50
2019-02-18T02:49:33.455Z,46.07
2019-02-18T02:50:41.562Z,59.03
2019-02-18T02:51:49.952Z,35.87
2019-02-18T02:52:58.666Z,55.60
2019-02-18T02:54:06.770Z,40.70
2019-02-18T02:55:15.487Z,38.27
2019-02-18T02:56:24.081Z,28.87
2019-02-18T02:57:33.136Z,40.83
2019-02-18T02:58:41.668Z,40.80
2019-02-18T02:59:50.170Z,49.33
2019-02-18T03:00:58.407Z,36.23
2019-02-18T03:02:06.756Z,34.63
2019-02-18T03:03:15.217Z,42.00
2019-02-18T03:04:23.513Z,45.57
2019-02-18T03:05:32.045Z,43.00
2019-02-18T03:06:40.230Z,60.23
2019-02-18T03:07:48.847Z,47.63
2019-02-18T03:08:56.926Z,32.33
2019-02-18T03:10:09.597Z,36.37
2019-02-18T03:11:18.251Z,53.47
2019-02-18T03:12:26.987Z,33.97
2019-02-18T03:13:35.544Z,42.87
2019-02-18T03:14:44.521Z,45.27
2019-02-18T03:15:53.779Z,62.00
2019-02-18T03:17:02.223Z,48.67
2019-02-18T03:18:10.335Z,53.67
2019-02-18T03:19:19.015Z,47.97
2019-02-18T03:20:27.825Z,37.87
2019-02-18T03:21:35.991Z,51.87
2019-02-18T03:22:44.252Z,39.73
2019-02-18T03:23:52.983Z,35.80
2019-02-18T03:25:19.500Z,53.23
2019-02-18T03:26:28.490Z,44.10
2019-02-18T03:27:36.787Z,53.97
2019-02-18T03:29:13.757Z,58.10
2019-02-18T03:30:39.017Z,60.23
2019-02-18T03:31:47.393Z,48.67
2019-02-18T03:32:55.887Z,41.87
2019-02-18T03:34:11.950Z,53.70
2019-02-18T03:35:20.461Z,43.20
2019-02-18T03:36:28.805Z,46.57
2019-02-18T03:37:37.085Z,47.73
2019-02-18T03:38:45.707Z,50.50
2019-02-18T03:39:54.171Z,46.77
2019-02-18T03:41:03.648Z,44.50
2019-02-18T03:42:12.369Z,53.97
2019-02-18T03:43:20.930Z,47.23
2019-02-18T03:44:29.074Z,48.17
2019-02-18T03:45:37.210Z,53.03
2019-02-18T03:46:45.619Z,48.30
2019-02-18T03:47:54.189Z,51.37
2019-02-18T03:49:02.333Z,50.90
2019-02-18T03:50:10.794Z,50.33
2019-02-18T03:51:19.450Z,53.67
2019-02-18T03:52:27.821Z,61.17
2019-02-18T03:53:36.363Z,47.33
2019-02-18T03:54:44.953Z,56.17
2019-02-18T03:55:53.492Z,55.77
2019-02-18T03:57:02.178Z,45.30
2019-02-18T03:58:10.328Z,44.67
2019-02-18T03:59:18.632Z,61.53
2019-02-18T04:00:26.759Z,40.53
2019-02-18T04:01:35.245Z,43.47
2019-02-18T04:02:43.603Z,49.03
2019-02-18T04:03:52.013Z,45.87
2019-02-18T04:05:00.403Z,45.57
2019-02-18T04:06:08.386Z,43.67
2019-02-18T04:07:16.582Z,42.43
2019-02-18T04:08:25.103Z,41.63
2019-02-18T04:09:33.299Z,56.83
2019-02-18T04:10:41.724Z,57.87
2019-02-18T04:11:49.774Z,50.33
2019-02-18T04:12:58.489Z,40.30
2019-02-18T04:14:06.641Z,37.13
2019-02-18T04:15:17.585Z,37.50
2019-02-18T04:16:25.874Z,34.63
2019-02-18T04:17:34.311Z,37.33
2019-02-18T04:18:42.819Z,52.90
2019-02-18T04:19:52.353Z,47.63
2019-02-18T04:21:01.262Z,40.17
2019-02-18T04:22:09.426Z,45.70
2019-02-18T04:23:17.402Z,31.03
2019-02-18T04:24:25.701Z,38.17
2019-02-18T04:25:33.992Z,66.50
2019-02-18T04:26:42.051Z,45.57
2019-02-18T04:27:50.351Z,51.70
2019-02-18T04:28:58.614Z,47.37
2019-02-18T04:30:10.511Z,53.10
2019-02-18T04:31:19.016Z,56.13
2019-02-18T04:32:27.601Z,45.87
2019-02-18T04:33:36.233Z,47.57
2019-02-18T04:34:44.468Z,48.87
2019-02-18T04:35:53.404Z,45.80
2019-02-18T04:37:01.859Z,49.17
2019-02-18T04:38:10.273Z,54.17
2019-02-18T04:39:18.938Z,50.63
2019-02-18T04:40:27.747Z,54.67
2019-02-18T04:41:35.974Z,47.70
2019-02-18T04:42:46.244Z,57.57
2019-02-18T04:43:54.518Z,36.60
2019-02-18T04:45:03.021Z,50.60
2019-02-18T04:46:12.114Z,43.40
2019-02-18T04:47:20.513Z,43.30
2019-02-18T04:48:29.401Z,73.10
2019-02-18T04:49:38.774Z,63.13
2019-02-18T04:50:47.457Z,62.63
2019-02-18T04:51:56.240Z,55.30
2019-02-18T04:53:04.359Z,50.60
2019-02-18T04:54:12.749Z,54.87
2019-02-18T04:55:21.605Z,43.03
2019-02-18T04:56:29.867Z,51.00
2019-02-18T04:57:38.821Z,53.30
2019-02-18T04:58:47.375Z,49.47
2019-02-18T04:59:56.525Z,71.43
2019-02-18T05:01:04.628Z,53.10
2019-02-18T05:02:12.808Z,61.90
2019-02-18T05:03:20.896Z,45.80
2019-02-18T05:04:29.042Z,61.73
2019-02-18T05:05:37.564Z,55.93
2019-02-18T05:06:45.716Z,57.90
2019-02-18T05:07:54.774Z,44.97
2019-02-18T05:09:05.669Z,42.37
2019-02-18T05:10:14.169Z,47.33
2019-02-18T05:11:22.874Z,52.13
2019-02-18T05:12:31.055Z,52.13
2019-02-18T05:13:39.510Z,46.93
2019-02-18T05:14:47.601Z,41.37
2019-02-18T05:15:56.356Z,58.67
2019-02-18T05:17:05.117Z,47.00
2019-02-18T05:18:13.945Z,55.67
2019-02-18T05:19:23.088Z,62.27
2019-02-18T05:20:31.526Z,60.13
2019-02-18T05:21:40.109Z,56.37
2019-02-18T05:22:48.535Z,39.60
2019-02-18T05:23:56.928Z,49.13
2019-02-18T05:25:10.100Z,55.20
2019-02-18T05:26:18.522Z,49.63
2019-02-18T05:27:33.275Z,59.53
2019-02-18T05:28:37.843Z,38.53
2019-02-18T05:29:46.561Z,52.87
2019-02-18T05:30:54.739Z,51.03
2019-02-18T05:32:03.878Z,55.23
2019-02-18T05:33:12.579Z,57.57
2019-02-18T05:34:20.952Z,42.60
2019-02-18T05:35:29.578Z,46.60
2019-02-18T05:36:38.068Z,40.50
2019-02-18T05:37:46.363Z,52.23
2019-02-18T05:38:54.865Z,60.17
2019-02-18T05:40:03.547Z,48.30
2019-02-18T05:41:12.162Z,67.77
2019-02-18T05:42:21.142Z,57.93
2019-02-18T05:43:29.961Z,44.80
2019-02-18T05:44:39.704Z,39.83
2019-02-18T05:45:48.855Z,50.50
2019-02-18T05:46:57.800Z,56.13
2019-02-18T05:48:06.675Z,56.87
2019-02-18T05:49:15.806Z,47.27
2019-02-18T05:50:25.168Z,49.00
2019-02-18T05:51:33.290Z,70.77
2019-02-18T05:52:42.385Z,62.33
2019-02-18T05:53:51.398Z,48.97
2019-02-18T05:54:59.881Z,48.03
2019-02-18T05:56:08.622Z,47.00
2019-02-18T05:57:18.130Z,58.00
2019-02-18T05:58:27.780Z,56.97
2019-02-18T05:59:36.078Z,54.07
2019-02-18T06:00:44.992Z,56.43
2019-02-18T06:01:55.236Z,54.00
2019-02-18T06:03:05.007Z,53.10
2019-02-18T06:04:13.573Z,40.77
2019-02-18T06:05:21.667Z,33.80
2019-02-18T06:06:30.377Z,44.80
2019-02-18T06:07:38.927Z,37.07
2019-02-18T06:08:48.350Z,33.50
2019-02-18T06:09:56.717Z,42.80
2019-02-18T06:11:07.106Z,47.27
2019-02-18T06:12:16.163Z,43.63
2019-02-18T06:13:25.270Z,61.07
2019-02-18T06:14:33.416Z,51.07
2019-02-18T06:15:41.776Z,58.13
2019-02-18T06:16:49.942Z,61.30
2019-02-18T06:18:00.532Z,44.87
2019-02-18T06:19:09.467Z,49.73
2019-02-18T06:20:18.051Z,44.27
2019-02-18T06:21:27.006Z,68.67
2019-02-18T06:22:38.451Z,48.97
2019-02-18T06:23:46.569Z,55.07
2019-02-18T06:24:55.417Z,46.90
2019-02-18T06:26:04.025Z,61.97
2019-02-18T06:27:13.522Z,62.27
2019-02-18T06:28:21.914Z,42.77
2019-02-18T06:29:30.456Z,42.97
2019-02-18T06:30:39.760Z,44.63
2019-02-18T06:31:48.562Z,42.27
2019-02-18T06:32:57.271Z,54.00
2019-02-18T06:34:05.798Z,58.97
2019-02-18T06:35:14.352Z,53.93
2019-02-18T06:36:23.906Z,52.00
2019-02-18T06:37:32.435Z,57.00
2019-02-18T06:38:41.455Z,57.23
2019-02-18T06:39:49.922Z,56.93
2019-02-18T06:40:58.804Z,55.17
2019-02-18T06:42:07.185Z,65.23
2019-02-18T06:43:15.987Z,56.47
2019-02-18T06:44:26.083Z,66.93
2019-02-18T06:45:52.264Z,47.67
2019-02-18T06:47:02.204Z,55.10
2019-02-18T06:48:12.818Z,46.43
2019-02-18T06:49:21.148Z,49.40
2019-02-18T06:50:29.731Z,53.83
2019-02-18T06:51:38.248Z,53.57
2019-02-18T06:52:47.516Z,50.37
2019-02-18T06:53:55.836Z,52.47
2019-02-18T06:55:05.271Z,55.90
2019-02-18T06:56:13.861Z,68.83
2019-02-18T06:57:26.257Z,69.70
2019-02-18T06:58:40.135Z,59.00
2019-02-18T06:59:50.753Z,53.07
2019-02-18T07:01:01.396Z,59.67
2019-02-18T07:02:14.518Z,58.03
2019-02-18T07:03:23.259Z,57.13
2019-02-18T07:04:49.194Z,72.73
2019-02-18T07:06:02.238Z,70.73
2019-02-18T07:07:15.720Z,64.13
2019-02-18T07:08:24.328Z,47.40
2019-02-18T07:09:38.875Z,60.20
2019-02-18T07:10:48.853Z,59.47
2019-02-18T07:11:59.518Z,62.73
2019-02-18T07:13:08.151Z,51.03
2019-02-18T07:14:17.154Z,49.10
2019-02-18T07:15:25.649Z,55.07
2019-02-18T07:16:34.125Z,56.70
2019-02-18T07:17:42.829Z,73.03
2019-02-18T07:18:51.883Z,48.63
2019-02-18T07:20:01.134Z,50.07
2019-02-18T07:21:10.382Z,57.47
2019-02-18T07:22:18.966Z,62.70
2019-02-18T07:23:28.046Z,59.47
2019-02-18T07:24:36.883Z,65.70
2019-02-18T07:25:45.993Z,48.63
2019-02-18T07:26:54.647Z,82.17
2019-02-18T07:28:03.112Z,59.17
2019-02-18T07:29:12.540Z,54.97
2019-02-18T07:30:21.346Z,50.47
2019-02-18T07:31:30.013Z,40.87
2019-02-18T07:32:38.649Z,54.73
2019-02-18T07:33:47.180Z,56.10
2019-02-18T07:34:55.433Z,64.10
2019-02-18T07:36:04.065Z,58.57
2019-02-18T07:37:12.663Z,69.33
2019-02-18T07:38:21.545Z,64.73
2019-02-18T07:39:30.281Z,59.57
2019-02-18T07:40:39.163Z,46.27
2019-02-18T07:41:48.112Z,51.53
2019-02-18T07:42:56.514Z,51.57
2019-02-18T07:44:05.329Z,54.70
2019-02-18T07:45:13.941Z,54.60
2019-02-18T07:46:22.887Z,57.37
2019-02-18T07:47:31.663Z,56.57
2019-02-18T07:48:40.631Z,65.43
2019-02-18T07:49:49.531Z,35.73
2019-02-18T07:50:59.703Z,57.90
2019-02-18T07:52:08.267Z,70.73
2019-02-18T07:53:17.367Z,66.60
2019-02-18T07:54:25.815Z,73.87
2019-02-18T07:55:34.642Z,61.40
2019-02-18T07:56:43.348Z,66.40
2019-02-18T07:57:52.188Z,63.93
2019-02-18T07:59:01.080Z,59.70
2019-02-18T08:00:13.924Z,76.83
2019-02-18T08:01:22.908Z,51.83
2019-02-18T08:02:31.335Z,61.50
2019-02-18T08:03:39.868Z,56.60
2019-02-18T08:04:48.515Z,65.27
2019-02-18T08:05:56.983Z,64.63
2019-02-18T08:07:05.357Z,65.27
2019-02-18T08:08:13.678Z,57.73
2019-02-18T08:09:22.268Z,60.50
2019-02-18T08:10:30.619Z,56.13
2019-02-18T08:11:39.178Z,57.77
2019-02-18T08:12:47.852Z,54.93
2019-02-18T08:13:56.074Z,68.60
2019-02-18T08:15:04.138Z,66.17
2019-02-18T08:16:12.327Z,67.70
2019-02-18T08:17:20.299Z,73.37
2019-02-18T08:18:28.586Z,59.48
2019-02-18T08:19:36.562Z,63.98
2019-02-18T08:20:45.565Z,56.08
2019-02-18T08:21:53.771Z,65.72
2019-02-18T08:23:02.296Z,52.33
2019-02-18T08:24:10.913Z,49.85
2019-02-18T08:25:19.417Z,59.15
2019-02-18T08:26:27.693Z,53.00
2019-02-18T08:27:36.094Z,57.95
2019-02-18T08:28:44.496Z,52.90
2019-02-18T08:29:52.968Z,67.22
2019-02-18T08:31:01.326Z,55.08
2019-02-18T08:32:10.889Z,61.92
2019-02-18T08:33:19.686Z,56.85
2019-02-18T08:34:28.116Z,40.43
2019-02-18T08:35:36.686Z,53.48
2019-02-18T08:36:45.297Z,54.60
2019-02-18T08:37:53.790Z,49.18
2019-02-18T08:39:01.777Z,47.15
2019-02-18T08:40:20.006Z,50.58
2019-02-18T08:41:22.239Z,49.70
2019-02-18T08:42:30.545Z,48.68
2019-02-18T08:43:38.987Z,45.55
2019-02-18T08:44:47.061Z,44.80
2019-02-18T08:45:55.715Z,38.45
2019-02-18T08:47:04.188Z,47.70
2019-02-18T08:48:12.414Z,40.60
2019-02-18T08:49:21.300Z,37.50
2019-02-18T08:50:29.302Z,37.85
2019-02-18T08:51:37.700Z,41.18
2019-02-18T08:52:45.999Z,41.48
2019-02-18T08:53:54.447Z,49.38
2019-02-18T08:55:02.629Z,33.78
2019-02-18T08:56:11.324Z,38.70
2019-02-18T08:57:19.599Z,48.95
2019-02-18T08:58:29.520Z,39.55
2019-02-18T08:59:37.821Z,39.25
2019-02-18T09:00:46.366Z,33.30
2019-02-18T09:01:54.683Z,37.17
2019-02-18T09:03:02.776Z,38.78
2019-02-18T09:04:10.806Z,37.90
2019-02-18T09:05:19.263Z,39.05
2019-02-18T09:06:28.206Z,34.53
2019-02-18T09:07:40.201Z,35.45
2019-02-18T09:08:48.729Z,38.20
2019-02-18T09:09:57.347Z,43.92
2019-02-18T09:11:06.991Z,42.70
2019-02-18T09:12:17.076Z,37.70
2019-02-18T09:13:25.467Z,35.10
2019-02-18T09:14:33.609Z,35.73
2019-02-18T09:15:42.534Z,32.55
2019-02-18T09:16:50.831Z,38.90
2019-02-18T09:17:58.998Z,30.27
2019-02-18T09:19:07.907Z,34.63
2019-02-18T09:20:16.454Z,36.40
2019-02-18T09:21:25.770Z,34.00
2019-02-18T09:22:37.148Z,31.75
2019-02-18T09:23:47.048Z,30.80
2019-02-18T09:24:56.812Z,29.20
2019-02-18T09:26:05.178Z,31.20
2019-02-18T09:27:14.050Z,41.50
2019-02-18T09:28:22.819Z,35.03
2019-02-18T09:29:31.723Z,35.03
2019-02-18T09:30:41.528Z,40.63
2019-02-18T09:31:50.136Z,32.45
2019-02-18T09:32:59.097Z,33.60
2019-02-18T09:34:07.549Z,35.85
2019-02-18T09:35:16.217Z,39.18
2019-02-18T09:36:24.865Z,36.93
2019-02-18T09:37:33.026Z,37.95
2019-02-18T09:38:41.327Z,36.77
2019-02-18T09:39:49.614Z,35.83
2019-02-18T09:40:58.445Z,34.35
2019-02-18T09:42:06.965Z,27.05
2019-02-18T09:43:15.267Z,38.67
2019-02-18T09:44:23.473Z,32.60
2019-02-18T09:45:31.965Z,33.95
2019-02-18T09:46:40.505Z,36.40
2019-02-18T09:47:49.327Z,31.05
2019-02-18T09:48:57.776Z,32.93
2019-02-18T09:50:08.831Z,27.52
2019-02-18T09:51:17.284Z,29.50
2019-02-18T09:52:25.558Z,25.95
2019-02-18T09:53:34.184Z,25.37
2019-02-18T09:54:42.943Z,23.07
2019-02-18T09:55:51.770Z,26.30
2019-02-18T09:57:00.013Z,22.95
2019-02-18T09:58:08.529Z,19.20
2019-02-18T09:59:17.312Z,20.45
2019-02-18T10:00:25.790Z,24.45
2019-02-18T10:01:33.935Z,19.85
2019-02-18T10:02:42.317Z,25.55
2019-02-18T10:03:50.545Z,25.80
2019-02-18T10:04:58.746Z,26.77
2019-02-18T10:06:07.313Z,22.80
2019-02-18T10:07:15.826Z,30.82
2019-02-18T10:08:24.670Z,21.23
2019-02-18T10:09:33.336Z,25.02
2019-02-18T10:10:41.496Z,39.63
2019-02-18T10:11:49.883Z,34.13
2019-02-18T10:12:59.721Z,30.02
2019-02-18T10:14:08.460Z,33.02
2019-02-18T10:15:17.142Z,35.48
2019-02-18T10:16:25.857Z,30.55
2019-02-18T10:17:34.123Z,31.20
2019-02-18T10:18:42.380Z,32.65
2019-02-18T10:19:50.912Z,40.20
2019-02-18T10:20:59.728Z,34.55
2019-02-18T10:22:08.073Z,38.98
2019-02-18T10:23:16.176Z,38.63
2019-02-18T10:24:24.689Z,32.03
2019-02-18T10:25:33.126Z,30.40
2019-02-18T10:26:41.517Z,25.68
2019-02-18T10:27:49.904Z,35.92
2019-02-18T10:28:58.178Z,31.00
2019-02-18T10:30:09.317Z,30.27
2019-02-18T10:31:17.662Z,32.45
2019-02-18T10:32:26.076Z,30.60
2019-02-18T10:33:34.265Z,27.65
2019-02-18T10:34:42.617Z,30.23
2019-02-18T10:35:52.007Z,25.25
2019-02-18T10:37:00.545Z,27.02
2019-02-18T10:38:09.055Z,29.18
2019-02-18T10:39:18.020Z,31.10
2019-02-18T10:40:26.289Z,25.48
2019-02-18T10:41:35.177Z,21.77
2019-02-18T10:42:43.446Z,28.12
2019-02-18T10:43:51.549Z,27.22
2019-02-18T10:45:00.396Z,25.62
2019-02-18T10:46:08.590Z,19.98
2019-02-18T10:47:16.700Z,20.92
2019-02-18T10:48:25.212Z,22.45
2019-02-18T10:49:33.695Z,25.60
2019-02-18T10:50:42.308Z,26.73
2019-02-18T10:51:51.077Z,28.05
2019-02-18T10:52:59.107Z,26.27
2019-02-18T10:54:07.269Z,30.60
2019-02-18T10:55:15.883Z,21.73
2019-02-18T10:56:25.008Z,23.18
2019-02-18T10:57:33.814Z,24.65
2019-02-18T10:58:41.877Z,20.95
2019-02-18T10:59:49.742Z,27.37
2019-02-18T11:00:58.103Z,20.50
2019-02-18T11:02:06.267Z,22.42
2019-02-18T11:03:14.808Z,26.15
2019-02-18T11:04:23.212Z,19.87
2019-02-18T11:05:32.092Z,38.10
2019-02-18T11:06:40.538Z,22.37
2019-02-18T11:07:48.833Z,23.42
2019-02-18T11:08:57.073Z,14.28
2019-02-18T11:10:14.762Z,26.93
2019-02-18T11:11:23.265Z,24.20
2019-02-18T11:12:31.613Z,27.15
2019-02-18T11:13:40.087Z,25.20
2019-02-18T11:14:48.678Z,21.62
2019-02-18T11:15:56.843Z,15.23
2019-02-18T11:17:05.023Z,19.70
2019-02-18T11:18:13.273Z,20.82
2019-02-18T11:19:21.830Z,24.95
2019-02-18T11:20:29.844Z,18.50
2019-02-18T11:21:37.972Z,17.42
2019-02-18T11:22:46.029Z,23.90
2019-02-18T11:23:54.804Z,21.37
2019-02-18T11:25:02.883Z,14.73
2019-02-18T11:26:11.124Z,21.50
2019-02-18T11:27:19.627Z,27.17
2019-02-18T11:28:28.087Z,16.82
2019-02-18T11:29:37.075Z,23.92
2019-02-18T11:30:45.408Z,22.60
2019-02-18T11:31:54.129Z,24.98
2019-02-18T11:33:02.641Z,16.30
2019-02-18T11:34:11.085Z,25.60
2019-02-18T11:35:19.653Z,20.30
2019-02-18T11:36:28.023Z,18.02
2019-02-18T11:37:36.396Z,23.05
2019-02-18T11:38:44.713Z,22.80
2019-02-18T11:39:53.267Z,23.42
2019-02-18T11:41:02.044Z,18.55
2019-02-18T11:42:10.307Z,18.80
2019-02-18T11:43:18.460Z,21.45
2019-02-18T11:44:27.219Z,16.48
2019-02-18T11:45:35.463Z,21.65
2019-02-18T11:46:44.341Z,20.02
2019-02-18T11:47:52.820Z,20.45
2019-02-18T11:49:01.116Z,23.35
2019-02-18T11:50:13.054Z,18.75
2019-02-18T11:51:21.774Z,24.55
2019-02-18T11:52:30.944Z,20.60
2019-02-18T11:53:39.538Z,17.55
2019-02-18T11:54:48.058Z,20.35
2019-02-18T11:55:57.541Z,16.35
2019-02-18T11:57:06.234Z,19.12
2019-02-18T11:58:14.942Z,19.73
2019-02-18T11:59:24.565Z,23.70
2019-02-18T12:00:32.667Z,18.32
2019-02-18T12:01:40.767Z,20.68
2019-02-18T12:02:49.286Z,13.80
2019-02-18T12:03:58.244Z,21.55
2019-02-18T12:05:09.151Z,24.87
2019-02-18T12:06:17.456Z,19.42
2019-02-18T12:07:26.117Z,21.35
2019-02-18T12:08:34.799Z,23.35
2019-02-18T12:09:43.686Z,25.20
2019-02-18T12:10:52.201Z,19.82
2019-02-18T12:12:00.721Z,22.67
2019-02-18T12:13:09.525Z,20.77
2019-02-18T12:14:17.595Z,24.98
2019-02-18T12:15:26.176Z,18.15
2019-02-18T12:16:34.699Z,19.55
2019-02-18T12:17:43.302Z,30.35
2019-02-18T12:18:52.261Z,24.75
2019-02-18T12:20:00.729Z,19.23
2019-02-18T12:21:09.225Z,27.67
2019-02-18T12:22:17.820Z,27.10
2019-02-18T12:23:26.074Z,20.57
2019-02-18T12:24:34.476Z,23.85
2019-02-18T12:25:42.868Z,18.52
2019-02-18T12:26:51.421Z,21.20
2019-02-18T12:28:00.262Z,15.85
2019-02-18T12:29:09.051Z,19.15
2019-02-18T12:30:19.610Z,13.45
2019-02-18T12:31:28.438Z,19.32
2019-02-18T12:32:37.400Z,15.05
2019-02-18T12:33:45.649Z,15.30
2019-02-18T12:34:54.067Z,17.80
2019-02-18T12:36:02.446Z,18.00
2019-02-18T12:37:11.073Z,18.52
2019-02-18T12:38:19.826Z,22.10
2019-02-18T12:39:28.480Z,16.73
2019-02-18T12:40:36.765Z,12.93
2019-02-18T12:41:48.691Z,16.80
2019-02-18T12:42:55.435Z,16.23
2019-02-18T12:44:03.928Z,15.13
2019-02-18T12:45:13.874Z,11.63
2019-02-18T12:46:22.303Z,15.08
2019-02-18T12:47:30.606Z,12.43
2019-02-18T12:48:39.257Z,15.70
2019-02-18T12:49:47.661Z,15.23
2019-02-18T12:50:56.020Z,14.95
2019-02-18T12:52:04.522Z,13.13
2019-02-18T12:53:12.972Z,13.85
2019-02-18T12:54:21.973Z,11.95
2019-02-18T12:55:30.452Z,10.05
2019-02-18T12:56:38.912Z,8.85
2019-02-18T12:57:47.484Z,13.10
2019-02-18T12:58:57.024Z,10.23
2019-02-18T13:00:10.056Z,9.30
2019-02-18T13:01:18.536Z,7.50
2019-02-18T13:02:26.956Z,15.13
2019-02-18T13:03:35.366Z,8.73
2019-02-18T13:04:43.792Z,8.20
2019-02-18T13:05:52.341Z,15.75
2019-02-18T13:07:00.287Z,12.35
2019-02-18T13:08:08.846Z,8.63
2019-02-18T13:09:17.047Z,11.63
2019-02-18T13:10:34.678Z,8.95
2019-02-18T13:11:35.799Z,13.13
2019-02-18T13:12:43.973Z,7.87
2019-02-18T13:13:52.615Z,11.88
2019-02-18T13:15:01.139Z,10.08
2019-02-18T13:16:09.356Z,9.28
2019-02-18T13:17:17.986Z,10.48
2019-02-18T13:18:26.526Z,8.75
2019-02-18T13:19:35.038Z,13.03
2019-02-18T13:20:43.379Z,12.82
2019-02-18T13:21:52.216Z,11.00
2019-02-18T13:23:01.206Z,16.12
2019-02-18T13:24:10.098Z,10.60
2019-02-18T13:25:18.590Z,9.18
2019-02-18T13:26:34.025Z,11.83
2019-02-18T13:27:42.225Z,8.33
2019-02-18T13:28:50.973Z,11.73
2019-02-18T13:29:59.235Z,14.10
2019-02-18T13:31:08.466Z,10.70
2019-02-18T13:32:16.979Z,9.75
2019-02-18T13:33:25.454Z,14.18
2019-02-18T13:34:33.715Z,14.68
2019-02-18T13:35:42.316Z,11.55
2019-02-18T13:36:51.150Z,10.95
2019-02-18T13:37:59.990Z,12.18
2019-02-18T13:39:09.574Z,11.95
2019-02-18T13:40:18.537Z,10.03
2019-02-18T13:41:27.624Z,8.45
2019-02-18T13:42:36.131Z,14.93
2019-02-18T13:43:45.061Z,13.18
2019-02-18T13:44:53.807Z,10.05
2019-02-18T13:46:02.618Z,8.43
2019-02-18T13:47:11.679Z,9.50
2019-02-18T13:48:19.991Z,10.63
2019-02-18T13:49:28.833Z,11.20
2019-02-18T13:50:38.491Z,7.45
2019-02-18T13:51:56.220Z,11.48
2019-02-18T13:52:58.019Z,8.48
2019-02-18T13:54:06.346Z,7.60
2019-02-18T13:55:15.771Z,7.65
2019-02-18T13:56:24.542Z,11.63
2019-02-18T13:57:33.112Z,8.55
2019-02-18T13:58:42.067Z,11.85
2019-02-18T13:59:50.242Z,15.15
2019-02-18T14:00:59.391Z,7.60
2019-02-18T14:02:08.521Z,10.55
2019-02-18T14:03:17.343Z,9.70
2019-02-18T14:04:26.043Z,7.92
2019-02-18T14:05:34.866Z,8.10
2019-02-18T14:06:44.045Z,8.10
2019-02-18T14:07:53.310Z,9.40
2019-02-18T14:09:02.037Z,10.35
2019-02-18T14:10:10.749Z,8.75
2019-02-18T14:11:19.964Z,8.90
2019-02-18T14:12:28.219Z,6.65
2019-02-18T14:13:36.767Z,11.15
2019-02-18T14:14:45.725Z,7.47
2019-02-18T14:15:54.768Z,7.12
2019-02-18T14:17:03.628Z,7.20
2019-02-18T14:18:12.371Z,13.40
2019-02-18T14:19:21.398Z,9.25
2019-02-18T14:20:30.224Z,6.65
2019-02-18T14:21:39.388Z,10.43
2019-02-18T14:22:48.405Z,8.95
2019-02-18T14:23:56.805Z,11.12
2019-02-18T14:25:07.754Z,16.35
2019-02-18T14:26:16.696Z,10.05
2019-02-18T14:27:25.139Z,8.08
2019-02-18T14:28:33.700Z,8.30
2019-02-18T14:29:43.244Z,9.15
2019-02-18T14:30:52.183Z,8.15
2019-02-18T14:32:00.763Z,9.13
2019-02-18T14:33:09.256Z,13.18
2019-02-18T14:34:17.859Z,9.03
2019-02-18T14:35:26.261Z,6.12
2019-02-18T14:36:35.505Z,10.55
2019-02-18T14:37:43.944Z,13.72
2019-02-18T14:38:52.658Z,8.08
2019-02-18T14:40:01.198Z,11.73
2019-02-18T14:41:10.533Z,8.80
2019-02-18T14:42:24.521Z,9.25
2019-02-18T14:43:29.304Z,8.00
2019-02-18T14:44:38.098Z,14.60
2019-02-18T14:45:46.966Z,9.38
2019-02-18T14:46:55.035Z,15.25
2019-02-18T14:48:04.332Z,11.95
2019-02-18T14:49:13.510Z,14.70